Time;durP1;ratioP1;P1;durP2;ratioP2;P2;SDS_P1;SDS_P2;PMS_P1;PMS_P2;Temp;Humidity;BMP_temperature;BMP_pressure;BME280_temperature;BME280_humidity;BME280_pressure;Samples;Min_cycle;Max_cycle;Signal;HPM_P1;HPM_P2
2022/05/27 00:09:34;;;;;;;4.67;2.00;;;;;;;15.37;72.14;100071.91;712475;1178;115029;-77
2022/05/27 00:24:36;;;;;;;84.43;21.23;;;;;;;15.44;72.76;100056.99;712620;1178;114970;-77
2022/05/27 00:39:39;;;;;;;24.45;8.00;;;;;;;15.48;72.54;100022.13;713170;1180;115941;-77
2022/05/27 00:54:42;;;;;;;12.83;7.17;;;;;;;15.44;73.00;100007.62;712728;1178;115815;-77
2022/05/27 01:09:49;;;;;;;6.88;2.40;;;;;;;15.37;73.62;99988.15;712225;1178;115113;-77
2022/05/27 01:25:17;;;;;;;14.70;5.17;;;;;;;15.22;74.92;99976.69;712258;1180;115332;-76
2022/05/27 01:40:33;;;;;;;81.65;36.10;;;;;;;15.23;75.64;99951.89;712390;1178;115541;-77
2022/05/27 01:55:55;;;;;;;25.20;13.23;;;;;;;15.05;76.81;99931.03;712089;1177;115709;-77
2022/05/27 02:11:09;;;;;;;16.08;6.50;;;;;;;15.06;78.01;99906.27;711941;1180;114965;-77
2022/05/27 02:26:16;;;;;;;17.60;7.70;;;;;;;14.98;78.64;99897.38;712176;1170;115626;-77
2022/05/27 02:41:31;;;;;;;28.00;7.50;;;;;;;14.92;80.67;99884.86;711985;1178;115484;-76
2022/05/27 02:56:40;;;;;;;18.80;5.40;;;;;;;14.95;82.66;99876.61;711925;1180;115047;-77
2022/05/27 03:11:45;;;;;;;10.03;3.60;;;;;;;15.07;83.75;99874.39;712138;1179;115949;-76
2022/05/27 03:27:09;;;;;;;8.30;2.90;;;;;;;15.11;83.72;99853.72;712370;1179;115396;-77
2022/05/27 03:42:12;;;;;;;7.83;2.90;;;;;;;14.93;86.92;99843.45;712706;1180;114849;-77
2022/05/27 03:57:14;;;;;;;3.40;1.70;;;;;;;14.66;89.28;99845.55;712049;1179;114775;-77
2022/05/27 04:12:20;;;;;;;3.40;1.68;;;;;;;14.79;90.53;99824.72;712263;1180;114837;-77
2022/05/27 04:27:22;;;;;;;3.90;2.00;;;;;;;14.66;92.74;99819.16;712214;1180;114943;-77
2022/05/27 04:42:25;;;;;;;4.83;2.10;;;;;;;14.70;94.12;99795.88;712027;1179;113955;-76
2022/05/27 04:57:31;;;;;;;4.57;2.20;;;;;;;14.88;96.76;99790.33;712199;1179;115375;-77
2022/05/27 05:12:34;;;;;;;7.10;2.40;;;;;;;15.05;97.43;99739.02;711755;1180;113934;-77
2022/05/27 05:27:38;;;;;;;1.60;1.50;;;;;;;14.94;98.92;99753.48;712415;1178;115349;-77
2022/05/27 05:42:41;;;;;;;3.53;1.60;;;;;;;14.80;100.00;99773.53;712309;1178;115545;-80
2022/05/27 05:57:46;;;;;;;2.13;1.73;;;;;;;15.08;100.00;99712.24;713055;1179;114500;-80
2022/05/27 06:12:48;;;;;;;1.55;1.30;;;;;;;15.33;100.00;99725.23;713311;1179;115434;-76
2022/05/27 06:34:23;;;;;;;2.60;2.20;;;;;;;15.36;100.00;99689.70;712012;1180;114184;-79
2022/05/27 06:43:16;;;;;;;2.15;1.63;;;;;;;15.47;100.00;99686.63;713276;1179;114521;-79
2022/05/27 06:58:18;;;;;;;3.15;1.80;;;;;;;15.58;100.00;99711.78;712846;1178;115083;-81
2022/05/27 07:13:21;;;;;;;4.70;2.75;;;;;;;15.66;100.00;99648.23;712877;1180;115754;-78
2022/05/27 07:28:24;;;;;;;40.83;32.00;;;;;;;16.51;99.89;99682.17;712821;1178;115164;-76
2022/05/27 07:43:27;;;;;;;23.05;15.75;;;;;;;16.54;98.07;99566.14;713057;1178;114616;-76
2022/05/27 07:58:29;;;;;;;8.47;5.20;;;;;;;16.97;95.96;99636.76;712743;1180;115514;-78
2022/05/27 08:13:32;;;;;;;5.30;4.18;;;;;;;16.98;93.91;99597.86;712168;1179;115431;-78
2022/05/27 08:28:34;;;;;;;3.03;2.33;;;;;;;16.98;91.03;99627.80;712520;1180;115421;-77
2022/05/27 08:43:50;;;;;;;649.70;227.75;;;;;;;17.13;87.39;99614.47;712231;1179;115507;-77
2022/05/27 08:59:27;;;;;;;39.10;15.70;;;;;;;17.42;81.46;99568.34;712104;1178;116868;-78
2022/05/27 09:14:31;;;;;;;7.87;3.87;;;;;;;18.05;77.55;99599.16;713128;1178;115670;-78
2022/05/27 09:30:01;;;;;;;6.75;2.30;;;;;;;18.31;74.10;99572.88;712360;1180;115347;-77
2022/05/27 09:45:04;;;;;;;52.68;12.18;;;;;;;19.16;68.71;99574.86;712934;1177;114775;-77
2022/05/27 10:00:12;;;;;;;13.20;5.77;;;;;;;18.84;64.12;99554.24;713090;1179;115748;-77
2022/05/27 10:15:31;;;;;;;4.95;1.93;;;;;;;18.99;61.99;99567.34;712893;1177;115713;-78
2022/05/27 10:30:51;;;;;;;2.70;1.40;;;;;;;18.62;61.70;99578.39;712515;1179;114928;-77
2022/05/27 10:45:55;;;;;;;3.93;1.80;;;;;;;19.56;63.26;99566.75;712336;1177;115358;-77
2022/05/27 11:16:48;;;;;;;5.40;1.30;;;;;;;21.51;50.39;99561.45;712893;1179;114897;-82
2022/05/27 11:32:15;;;;;;;4.10;1.30;;;;;;;20.68;49.19;99558.22;712404;1179;114047;-81
2022/05/27 11:47:20;;;;;;;5.60;1.40;;;;;;;20.91;51.08;99556.80;712349;1177;115908;-81
2022/05/27 12:02:40;;;;;;;2.17;1.03;;;;;;;21.03;49.05;99580.88;712468;1180;118243;-79
2022/05/27 12:17:50;;;;;;;3.88;0.98;;;;;;;21.38;46.39;99574.93;714869;1177;114190;-78
2022/05/27 12:32:53;;;;;;;4.40;1.30;;;;;;;21.09;44.50;99578.13;715703;1179;117487;-76
2022/05/27 12:47:57;;;;;;;3.35;1.15;;;;;;;19.21;50.93;99655.61;713001;1177;114779;-77
2022/05/27 13:02:59;;;;;;;4.45;1.98;;;;;;;18.90;52.79;99653.63;713867;1178;115154;-79
2022/05/27 13:18:12;;;;;;;3.10;1.20;;;;;;;19.72;52.25;99619.45;714436;1179;114550;-79
2022/05/27 13:33:23;;;;;;;3.35;2.18;;;;;;;20.93;49.88;99622.19;713781;1180;113945;-81
2022/05/27 13:48:34;;;;;;;4.53;2.03;;;;;;;20.48;48.40;99618.84;713674;1180;113937;-81
2022/05/27 14:03:52;;;;;;;2.00;1.20;;;;;;;21.91;48.46;99610.85;713993;1180;114022;-79
2022/05/27 14:18:57;;;;;;;6.10;1.60;;;;;;;20.21;47.63;99600.39;714430;1177;114009;-78
2022/05/27 14:34:02;;;;;;;5.23;1.13;;;;;;;20.04;47.48;99603.55;714054;1179;114050;-79
2022/05/27 14:49:29;;;;;;;1.78;0.93;;;;;;;19.12;47.67;99595.71;713952;1180;114027;-80
2022/05/27 15:04:32;;;;;;;3.83;2.80;;;;;;;19.64;48.85;99601.08;713604;1177;114555;-78
2022/05/27 15:19:45;;;;;;;3.23;1.53;;;;;;;19.56;48.40;99606.65;712400;1177;114775;-78
2022/05/27 15:34:58;;;;;;;12.60;7.98;;;;;;;19.93;46.43;99612.23;712785;1179;114928;-78
2022/05/27 15:50:01;;;;;;;1.27;1.10;;;;;;;19.55;43.38;99636.93;713198;1178;114246;-79
2022/05/27 16:05:04;;;;;;;7.40;1.55;;;;;;;18.31;44.70;99649.87;712773;1178;114157;-79
2022/05/27 16:20:08;;;;;;;3.55;1.63;;;;;;;17.02;48.53;99644.95;712519;1180;115256;-79
2022/05/27 16:35:14;;;;;;;5.63;2.88;;;;;;;16.57;50.57;99644.37;712767;1178;115261;-79
2022/05/27 16:50:22;;;;;;;1.85;1.60;;;;;;;17.05;51.51;99633.98;712673;1180;115446;-79
2022/05/27 17:05:26;;;;;;;20.35;6.80;;;;;;;16.32;52.49;99644.73;712816;1177;115399;-81
2022/05/27 17:20:29;;;;;;;10.10;4.45;;;;;;;16.02;54.44;99658.08;712934;1178;115475;-80
2022/05/27 17:35:32;;;;;;;13.10;9.07;;;;;;;16.12;54.77;99650.63;712676;1180;114195;-82
2022/05/27 18:05:59;;;;;;;117.07;53.10;;;;;;;15.27;57.50;99659.92;714095;1179;114298;-86
2022/05/27 18:21:02;;;;;;;16.33;8.27;;;;;;;14.68;59.58;99652.70;713841;1179;115834;-80
2022/05/27 18:36:06;;;;;;;155.55;67.08;;;;;;;14.11;61.42;99658.15;712412;1179;115250;-80
2022/05/27 18:51:10;;;;;;;17.03;11.50;;;;;;;13.99;62.18;99662.18;712479;1178;114486;-83
2022/05/27 19:06:13;;;;;;;7.90;3.73;;;;;;;13.75;61.84;99674.48;712602;1177;115167;-83
2022/05/27 19:21:16;;;;;;;7.37;2.93;;;;;;;13.30;64.22;99675.88;712740;1179;115499;-86
2022/05/27 19:36:22;;;;;;;8.98;3.05;;;;;;;13.05;65.23;99675.94;713078;1180;114237;-87
2022/05/27 19:51:42;;;;;;;5.80;2.30;;;;;;;12.89;66.33;99679.38;713012;1180;114995;-81
2022/05/27 20:06:45;;;;;;;4.95;1.90;;;;;;;12.75;67.51;99677.42;712840;1178;115388;-80
2022/05/27 20:21:49;;;;;;;4.50;1.80;;;;;;;12.69;67.33;99683.34;712578;1178;115644;-81
2022/05/27 20:37:00;;;;;;;2.35;1.30;;;;;;;12.56;68.54;99660.94;712892;1180;114899;-81
2022/05/27 20:52:04;;;;;;;1.80;1.07;;;;;;;12.49;69.45;99663.41;713057;1180;114914;-81
2022/05/27 21:07:09;;;;;;;3.25;1.80;;;;;;;12.34;70.12;99662.42;716400;1178;115572;-82
2022/05/27 21:22:12;;;;;;;2.75;1.40;;;;;;;12.39;69.94;99659.28;713969;1180;115343;-81
2022/05/27 21:37:15;;;;;;;5.37;2.30;;;;;;;12.25;72.25;99647.61;714472;1178;114474;-80
2022/05/27 21:52:17;;;;;;;2.70;1.40;;;;;;;12.36;71.71;99633.32;715267;1177;115276;-86
2022/05/27 22:07:20;;;;;;;4.20;1.23;;;;;;;12.29;71.42;99644.48;712557;1180;115277;-89
2022/05/27 22:22:24;;;;;;;1.83;0.78;;;;;;;12.34;71.79;99645.80;712991;1177;114460;-82
2022/05/27 22:37:28;;;;;;;3.20;1.20;;;;;;;12.13;70.78;99640.02;713211;1177;114676;-82
2022/05/27 22:52:31;;;;;;;1.30;0.90;;;;;;;11.91;71.94;99632.70;712632;1179;115214;-81
2022/05/27 23:07:33;;;;;;;1.85;0.80;;;;;;;11.73;72.35;99607.36;712756;1180;113745;-82
2022/05/27 23:22:35;;;;;;;0.93;0.90;;;;;;;11.51;73.61;99614.00;712773;1178;114622;-81
2022/05/27 23:37:37;;;;;;;1.20;0.80;;;;;;;11.60;73.42;99593.83;712929;1180;114944;-82
2022/05/27 23:52:41;;;;;;;2.15;1.13;;;;;;;11.48;78.40;99623.02;712667;1177;114719;-82
